DLH27C EHAM-EDDF
Flight info
| Callsign | DLH27C |
|---|---|
| Flight time | N/A |
| Altitude | 35000 |
| Route | EDUPO Z739 MISGO DCT DIXAT DIXAT1A |
| Aircraft | A320/M-SDE3FGHIRWY/LB1 |
Departure
| Time | 2026-05-05 17:48 |
|---|---|
| Airport | Amsterdam Airport Schiphol (EHAM) |
Arrival
| Time | N/A |
|---|---|
| Airport | Frankfurt Main Airport (EDDF) |
| Time | Latitude | Longitude | Altitude | Speed | Heading |
|---|---|---|---|---|---|
| 2026-05-05 17:10 | 52.31014 | 4.77245 | -3 ft | 0 kts | 184° |
| 2026-05-05 17:35 | 52.31021 | 4.77246 | -3 ft | 3 kts | 181° |
| 2026-05-05 17:36 | 52.31042 | 4.77245 | -3 ft | 3 kts | 176° |
| 2026-05-05 17:36 | 52.31061 | 4.77238 | -3 ft | 3 kts | 155° |
| 2026-05-05 17:36 | 52.31073 | 4.77217 | -3 ft | 3 kts | 115° |
| 2026-05-05 17:36 | 52.31079 | 4.77186 | -3 ft | 1 kts | 102° |
| 2026-05-05 17:40 | 52.31076 | 4.77211 | -3 ft | 11 kts | 91° |
| 2026-05-05 17:40 | 52.31084 | 4.77441 | -3 ft | 23 kts | 73° |
| 2026-05-05 17:40 | 52.31159 | 4.77595 | -3 ft | 17 kts | 62° |
| 2026-05-05 17:40 | 52.31239 | 4.77645 | -2 ft | 12 kts | 3° |
| 2026-05-05 17:41 | 52.31302 | 4.77650 | -2 ft | 11 kts | 2° |
| 2026-05-05 17:41 | 52.31377 | 4.77653 | -2 ft | 11 kts | 360° |
| 2026-05-05 17:41 | 52.31463 | 4.77625 | -2 ft | 14 kts | 330° |
| 2026-05-05 17:41 | 52.31546 | 4.77504 | -2 ft | 18 kts | 309° |
| 2026-05-05 17:42 | 52.31575 | 4.77300 | -3 ft | 21 kts | 266° |
| 2026-05-05 17:42 | 52.31569 | 4.77050 | -3 ft | 24 kts | 266° |
| 2026-05-05 17:42 | 52.31559 | 4.76762 | -3 ft | 27 kts | 266° |
| 2026-05-05 17:42 | 52.31549 | 4.76442 | -3 ft | 30 kts | 266° |
| 2026-05-05 17:43 | 52.31537 | 4.76090 | -3 ft | 32 kts | 266° |
| 2026-05-05 17:43 | 52.31524 | 4.75709 | -4 ft | 35 kts | 266° |
| 2026-05-05 17:43 | 52.31509 | 4.75299 | -4 ft | 37 kts | 266° |
| 2026-05-05 17:43 | 52.31496 | 4.74864 | -4 ft | 39 kts | 267° |
| 2026-05-05 17:44 | 52.31480 | 4.74413 | -4 ft | 39 kts | 267° |
| 2026-05-05 17:44 | 52.31390 | 4.74145 | -4 ft | 27 kts | 188° |
| 2026-05-05 17:44 | 52.31191 | 4.74123 | -4 ft | 30 kts | 181° |
| 2026-05-05 17:44 | 52.30974 | 4.74099 | -4 ft | 33 kts | 183° |
| 2026-05-05 17:45 | 52.30741 | 4.74085 | -3 ft | 35 kts | 183° |
| 2026-05-05 17:45 | 52.30623 | 4.74070 | -3 ft | 28 kts | 185° |
| 2026-05-05 17:45 | 52.30561 | 4.74061 | -3 ft | 28 kts | 185° |
| 2026-05-05 17:46 | 52.30381 | 4.74049 | -3 ft | 24 kts | 183° |
| 2026-05-05 17:46 | 52.30247 | 4.73958 | -3 ft | 16 kts | 223° |
| 2026-05-05 17:46 | 52.30231 | 4.73934 | -3 ft | 0 kts | 221° |
| 2026-05-05 17:47 | 52.30223 | 4.73923 | -3 ft | 9 kts | 221° |
| 2026-05-05 17:47 | 52.30219 | 4.73757 | -3 ft | 11 kts | 347° |
| 2026-05-05 17:47 | 52.30393 | 4.73761 | -3 ft | 59 kts | 4° |
| 2026-05-05 17:48 | 52.31077 | 4.73823 | -3 ft | 137 kts | 3° |
| 2026-05-05 17:48 | 52.32203 | 4.73949 | 266 ft | 177 kts | 5° |
| 2026-05-05 17:48 | 52.33478 | 4.74192 | 977 ft | 193 kts | 11° |
| 2026-05-05 17:48 | 52.34795 | 4.74847 | 1793 ft | 202 kts | 24° |
| 2026-05-05 17:49 | 52.35975 | 4.76041 | 2511 ft | 214 kts | 37° |
| 2026-05-05 17:49 | 52.37198 | 4.77628 | 2938 ft | 238 kts | 39° |
| 2026-05-05 17:49 | 52.38523 | 4.79493 | 3532 ft | 258 kts | 42° |
| 2026-05-05 17:49 | 52.39849 | 4.81507 | 4215 ft | 264 kts | 44° |
| 2026-05-05 17:50 | 52.41157 | 4.83641 | 4924 ft | 267 kts | 46° |
| 2026-05-05 17:50 | 52.42422 | 4.85858 | 5638 ft | 270 kts | 48° |
| 2026-05-05 17:50 | 52.43657 | 4.88183 | 6365 ft | 273 kts | 50° |
| 2026-05-05 17:50 | 52.44846 | 4.90589 | 7084 ft | 277 kts | 52° |
| 2026-05-05 17:51 | 52.45728 | 4.93394 | 7154 ft | 277 kts | 77° |
| 2026-05-05 17:51 | 52.45746 | 4.96502 | 7227 ft | 276 kts | 104° |
| 2026-05-05 17:51 | 52.45031 | 4.99438 | 7452 ft | 279 kts | 123° |
| 2026-05-05 17:51 | 52.43675 | 5.01646 | 7680 ft | 280 kts | 147° |
| 2026-05-05 17:52 | 52.41972 | 5.03206 | 7913 ft | 281 kts | 153° |
| 2026-05-05 17:52 | 52.40336 | 5.04482 | 8121 ft | 282 kts | 156° |
| 2026-05-05 17:52 | 52.38530 | 5.05721 | 8406 ft | 283 kts | 157° |
| 2026-05-05 17:52 | 52.36706 | 5.06965 | 8804 ft | 285 kts | 157° |
| 2026-05-05 17:53 | 52.34892 | 5.08223 | 9203 ft | 287 kts | 156° |
| 2026-05-05 17:53 | 52.33192 | 5.09886 | 9597 ft | 288 kts | 138° |
| 2026-05-05 17:53 | 52.31783 | 5.12218 | 10005 ft | 292 kts | 132° |
| 2026-05-05 17:53 | 52.30391 | 5.14773 | 10426 ft | 313 kts | 131° |
| 2026-05-05 17:54 | 52.28904 | 5.17512 | 10848 ft | 334 kts | 131° |
| 2026-05-05 17:54 | 52.27319 | 5.20408 | 11266 ft | 355 kts | 131° |
| 2026-05-05 17:54 | 52.25632 | 5.23474 | 11683 ft | 375 kts | 131° |
| 2026-05-05 17:54 | 52.23987 | 5.26731 | 12086 ft | 389 kts | 127° |
| 2026-05-05 17:55 | 52.22871 | 5.29205 | 12368 ft | 392 kts | 125° |
| 2026-05-05 17:55 | 52.21299 | 5.32820 | 12769 ft | 395 kts | 125° |
| 2026-05-05 17:55 | 52.19713 | 5.36496 | 13172 ft | 397 kts | 125° |
| 2026-05-05 17:55 | 52.18127 | 5.40159 | 13572 ft | 399 kts | 125° |
| 2026-05-05 17:56 | 52.16524 | 5.43845 | 13972 ft | 401 kts | 125° |
| 2026-05-05 17:56 | 52.14914 | 5.47538 | 14372 ft | 404 kts | 125° |
| 2026-05-05 17:56 | 52.13375 | 5.51063 | 14751 ft | 406 kts | 125° |
| 2026-05-05 17:56 | 52.11656 | 5.54990 | 15172 ft | 408 kts | 125° |
| 2026-05-05 17:57 | 52.10012 | 5.58745 | 15572 ft | 411 kts | 125° |
| 2026-05-05 17:57 | 52.08363 | 5.62504 | 15971 ft | 413 kts | 125° |
| 2026-05-05 17:57 | 52.06678 | 5.66286 | 16371 ft | 416 kts | 127° |
| 2026-05-05 17:57 | 52.04864 | 5.69943 | 16773 ft | 418 kts | 130° |
| 2026-05-05 17:58 | 52.02973 | 5.73520 | 17174 ft | 421 kts | 131° |
| 2026-05-05 17:58 | 52.01059 | 5.77078 | 17573 ft | 423 kts | 131° |
| 2026-05-05 17:58 | 51.99118 | 5.80677 | 17974 ft | 425 kts | 131° |
| 2026-05-05 17:58 | 51.97212 | 5.84223 | 18368 ft | 428 kts | 131° |
| 2026-05-05 17:59 | 51.95265 | 5.87855 | 18768 ft | 430 kts | 130° |
| 2026-05-05 17:59 | 51.93297 | 5.91530 | 19170 ft | 433 kts | 130° |
| 2026-05-05 17:59 | 51.91330 | 5.95198 | 19570 ft | 435 kts | 131° |
| 2026-05-05 17:59 | 51.89349 | 5.98885 | 19969 ft | 438 kts | 131° |
| 2026-05-05 18:00 | 51.87349 | 6.02601 | 20370 ft | 441 kts | 131° |
| 2026-05-05 18:00 | 51.85326 | 6.06347 | 20773 ft | 443 kts | 131° |
| 2026-05-05 18:00 | 51.83309 | 6.10066 | 21171 ft | 446 kts | 131° |
| 2026-05-05 18:00 | 51.81263 | 6.13826 | 21571 ft | 448 kts | 131° |
| 2026-05-05 18:01 | 51.79205 | 6.17601 | 21972 ft | 451 kts | 131° |
| 2026-05-05 18:01 | 51.77127 | 6.21406 | 22374 ft | 454 kts | 131° |
| 2026-05-05 18:01 | 51.75062 | 6.25181 | 22770 ft | 456 kts | 131° |
| 2026-05-05 18:01 | 51.72944 | 6.29044 | 23174 ft | 459 kts | 131° |
| 2026-05-05 18:02 | 51.70837 | 6.32881 | 23573 ft | 462 kts | 131° |
| 2026-05-05 18:02 | 51.68706 | 6.36754 | 23974 ft | 465 kts | 131° |
| 2026-05-05 18:02 | 51.66588 | 6.40599 | 24370 ft | 467 kts | 131° |
| 2026-05-05 18:02 | 51.64411 | 6.44545 | 24771 ft | 470 kts | 131° |
| 2026-05-05 18:03 | 51.62262 | 6.48436 | 24940 ft | 473 kts | 131° |
| 2026-05-05 18:03 | 51.60072 | 6.52396 | 24951 ft | 472 kts | 131° |
| 2026-05-05 18:03 | 51.57906 | 6.56308 | 24952 ft | 471 kts | 131° |
| 2026-05-05 18:03 | 51.55813 | 6.60081 | 24952 ft | 471 kts | 131° |
| 2026-05-05 18:04 | 51.53602 | 6.64061 | 24953 ft | 471 kts | 131° |
| 2026-05-05 18:04 | 51.51381 | 6.68054 | 24953 ft | 471 kts | 131° |
| 2026-05-05 18:04 | 51.49227 | 6.71918 | 24953 ft | 471 kts | 131° |
| 2026-05-05 18:04 | 51.47049 | 6.75821 | 24953 ft | 471 kts | 131° |
| 2026-05-05 18:05 | 51.46227 | 6.77291 | 24953 ft | 471 kts | 131° |
| 2026-05-05 18:05 | 51.46082 | 6.77551 | 24953 ft | 471 kts | 131° |
| 2026-05-05 18:05 | 51.45937 | 6.77811 | 24953 ft | 471 kts | 131° |
| 2026-05-05 18:05 | 51.45647 | 6.78330 | 24953 ft | 471 kts | 131° |
| 2026-05-05 18:06 | 51.45211 | 6.79109 | 24953 ft | 471 kts | 131° |
| 2026-05-05 18:06 | 51.44921 | 6.79628 | 24953 ft | 471 kts | 131° |
| 2026-05-05 18:06 | 51.44630 | 6.80147 | 24953 ft | 471 kts | 131° |
| 2026-05-05 18:06 | 51.44195 | 6.80926 | 24953 ft | 471 kts | 131° |
| 2026-05-05 18:07 | 51.44049 | 6.81185 | 24953 ft | 471 kts | 131° |
| 2026-05-05 18:07 | 51.41925 | 6.84983 | 24953 ft | 471 kts | 131° |
| 2026-05-05 18:07 | 51.39793 | 6.88969 | 24953 ft | 471 kts | 129° |
| 2026-05-05 18:07 | 51.39525 | 6.89487 | 24953 ft | 471 kts | 129° |
| 2026-05-05 18:08 | 51.37883 | 6.92734 | 24953 ft | 471 kts | 128° |
| 2026-05-05 18:08 | 51.36124 | 6.96279 | 24953 ft | 471 kts | 128° |
| 2026-05-05 18:08 | 51.35104 | 6.98344 | 24953 ft | 471 kts | 128° |
| 2026-05-05 18:08 | 51.34834 | 6.98890 | 24953 ft | 471 kts | 128° |
| 2026-05-05 18:09 | 51.33836 | 7.00905 | 24953 ft | 471 kts | 128° |
| 2026-05-05 18:09 | 51.32725 | 7.03143 | 24953 ft | 471 kts | 128° |
| 2026-05-05 18:09 | 51.30718 | 7.07172 | 24953 ft | 471 kts | 128° |
| 2026-05-05 18:10 | 51.28692 | 7.11258 | 24951 ft | 471 kts | 129° |
| 2026-05-05 18:10 | 51.26507 | 7.14736 | 24947 ft | 471 kts | 141° |
| 2026-05-05 18:10 | 51.23804 | 7.17578 | 24957 ft | 472 kts | 150° |
| 2026-05-05 18:10 | 51.22301 | 7.18839 | 24957 ft | 472 kts | 153° |
| 2026-05-05 18:11 | 51.20089 | 7.20544 | 24955 ft | 472 kts | 154° |
| 2026-05-05 18:11 | 51.19892 | 7.20693 | 24955 ft | 472 kts | 154° |
| 2026-05-05 18:11 | 51.19498 | 7.20989 | 24954 ft | 472 kts | 154° |
| 2026-05-05 18:11 | 51.19300 | 7.21137 | 24954 ft | 472 kts | 154° |
| 2026-05-05 18:12 | 51.19103 | 7.21286 | 24954 ft | 472 kts | 154° |
| 2026-05-05 18:12 | 51.18906 | 7.21434 | 24954 ft | 472 kts | 154° |
| 2026-05-05 18:12 | 51.15209 | 7.24247 | 24953 ft | 472 kts | 154° |
| 2026-05-05 18:12 | 51.13453 | 7.25617 | 24953 ft | 472 kts | 153° |
| 2026-05-05 18:13 | 51.10479 | 7.28008 | 24953 ft | 472 kts | 153° |
| 2026-05-05 18:13 | 51.07516 | 7.30449 | 24953 ft | 472 kts | 152° |
| 2026-05-05 18:13 | 51.04687 | 7.32792 | 24907 ft | 473 kts | 152° |
| 2026-05-05 18:13 | 51.01869 | 7.35122 | 24551 ft | 470 kts | 152° |
| 2026-05-05 18:14 | 50.98914 | 7.37557 | 24165 ft | 466 kts | 152° |
| 2026-05-05 18:14 | 50.96059 | 7.39904 | 23791 ft | 463 kts | 152° |
| 2026-05-05 18:14 | 50.93196 | 7.42253 | 23414 ft | 461 kts | 152° |
| 2026-05-05 18:14 | 50.90384 | 7.44558 | 23042 ft | 458 kts | 152° |
| 2026-05-05 18:15 | 50.87579 | 7.46854 | 22668 ft | 456 kts | 152° |
| 2026-05-05 18:15 | 50.84787 | 7.49136 | 22295 ft | 453 kts | 152° |
| 2026-05-05 18:15 | 50.81997 | 7.51413 | 21920 ft | 451 kts | 152° |
| 2026-05-05 18:15 | 50.79240 | 7.53661 | 21546 ft | 448 kts | 152° |
| 2026-05-05 18:16 | 50.76483 | 7.55905 | 21172 ft | 446 kts | 152° |
| 2026-05-05 18:16 | 50.73964 | 7.57953 | 20827 ft | 443 kts | 152° |
| 2026-05-05 18:16 | 50.71357 | 7.60387 | 20446 ft | 441 kts | 142° |
| 2026-05-05 18:16 | 50.69185 | 7.63734 | 20071 ft | 438 kts | 128° |
| 2026-05-05 18:17 | 50.67638 | 7.67772 | 19699 ft | 435 kts | 113° |
| 2026-05-05 18:17 | 50.66725 | 7.72333 | 19329 ft | 433 kts | 104° |
| 2026-05-05 18:17 | 50.65813 | 7.76799 | 18954 ft | 431 kts | 111° |
| 2026-05-05 18:17 | 50.64526 | 7.81011 | 18582 ft | 428 kts | 118° |
| 2026-05-05 18:18 | 50.63015 | 7.85045 | 18207 ft | 426 kts | 121° |
| 2026-05-05 18:18 | 50.61456 | 7.88946 | 17835 ft | 424 kts | 122° |
| 2026-05-05 18:18 | 50.59890 | 7.92838 | 17461 ft | 421 kts | 122° |
| 2026-05-05 18:18 | 50.58338 | 7.96712 | 17086 ft | 419 kts | 122° |
| 2026-05-05 18:19 | 50.56853 | 8.00435 | 16723 ft | 413 kts | 122° |
| 2026-05-05 18:19 | 50.55349 | 8.04207 | 16346 ft | 406 kts | 122° |
| 2026-05-05 18:19 | 50.53822 | 8.08031 | 15957 ft | 398 kts | 122° |
| 2026-05-05 18:19 | 50.52371 | 8.11659 | 15580 ft | 391 kts | 122° |
| 2026-05-05 18:20 | 50.50945 | 8.15220 | 15204 ft | 384 kts | 122° |
| 2026-05-05 18:20 | 50.50010 | 8.17554 | 14954 ft | 379 kts | 122° |
| 2026-05-05 18:20 | 50.48155 | 8.22176 | 14443 ft | 369 kts | 122° |
| 2026-05-05 18:20 | 50.46826 | 8.25481 | 14066 ft | 357 kts | 122° |
| 2026-05-05 18:21 | 50.45525 | 8.28714 | 13687 ft | 346 kts | 122° |
| 2026-05-05 18:21 | 50.44258 | 8.31856 | 13307 ft | 337 kts | 122° |
| 2026-05-05 18:21 | 50.43092 | 8.34748 | 12947 ft | 328 kts | 122° |
| 2026-05-05 18:21 | 50.41867 | 8.37779 | 12561 ft | 320 kts | 122° |
| 2026-05-05 18:22 | 50.40741 | 8.40565 | 12197 ft | 312 kts | 122° |
| 2026-05-05 18:22 | 50.39558 | 8.43486 | 11806 ft | 305 kts | 122° |
| 2026-05-05 18:22 | 50.38439 | 8.46247 | 11429 ft | 299 kts | 122° |
| 2026-05-05 18:22 | 50.37371 | 8.48878 | 11061 ft | 293 kts | 122° |
| 2026-05-05 18:23 | 50.36255 | 8.51628 | 10674 ft | 291 kts | 122° |
| 2026-05-05 18:23 | 50.35198 | 8.54227 | 10308 ft | 290 kts | 122° |
| 2026-05-05 18:23 | 50.34102 | 8.56921 | 9904 ft | 290 kts | 122° |
| 2026-05-05 18:23 | 50.33021 | 8.59575 | 9457 ft | 291 kts | 122° |
| 2026-05-05 18:24 | 50.31933 | 8.62242 | 9009 ft | 292 kts | 122° |
| 2026-05-05 18:24 | 50.30844 | 8.64909 | 8561 ft | 292 kts | 122° |
| 2026-05-05 18:24 | 50.29785 | 8.67500 | 8127 ft | 293 kts | 122° |
| 2026-05-05 18:24 | 50.28719 | 8.70107 | 7689 ft | 293 kts | 122° |
| 2026-05-05 18:25 | 50.27618 | 8.72950 | 7211 ft | 292 kts | 113° |
| 2026-05-05 18:25 | 50.27395 | 8.73937 | 7100 ft | 290 kts | 103° |
| 2026-05-05 18:25 | 50.27066 | 8.78890 | 6981 ft | 266 kts | 93° |
| 2026-05-05 18:25 | 50.26964 | 8.81742 | 6711 ft | 261 kts | 93° |
| 2026-05-05 18:26 | 50.26662 | 8.84482 | 6414 ft | 254 kts | 114° |
| 2026-05-05 18:26 | 50.25602 | 8.86611 | 6130 ft | 247 kts | 144° |
| 2026-05-05 18:26 | 50.24540 | 8.87450 | 5937 ft | 242 kts | 161° |
| 2026-05-05 18:26 | 50.24328 | 8.87563 | 5901 ft | 241 kts | 162° |
| 2026-05-05 18:27 | 50.23281 | 8.88048 | 5720 ft | 240 kts | 164° |
| 2026-05-05 18:27 | 50.22655 | 8.88317 | 5613 ft | 239 kts | 165° |
| 2026-05-05 18:27 | 50.21038 | 8.88994 | 5335 ft | 238 kts | 165° |
| 2026-05-05 18:27 | 50.19449 | 8.89657 | 5061 ft | 237 kts | 165° |
| 2026-05-05 18:28 | 50.16281 | 8.90976 | 4511 ft | 235 kts | 165° |
| 2026-05-05 18:28 | 50.14699 | 8.91449 | 4250 ft | 233 kts | 183° |
| 2026-05-05 18:28 | 50.13571 | 8.91030 | 4196 ft | 235 kts | 207° |
| 2026-05-05 18:29 | 50.12420 | 8.89710 | 4185 ft | 228 kts | 223° |
| 2026-05-05 18:29 | 50.12344 | 8.89601 | 4184 ft | 227 kts | 223° |
| 2026-05-05 18:29 | 50.12118 | 8.89267 | 4179 ft | 223 kts | 224° |
| 2026-05-05 18:29 | 50.11555 | 8.88416 | 4170 ft | 217 kts | 225° |
| 2026-05-05 18:30 | 50.10653 | 8.86570 | 4230 ft | 214 kts | 243° |
| 2026-05-05 18:30 | 50.10120 | 8.84478 | 4208 ft | 203 kts | 251° |
| 2026-05-05 18:30 | 50.09676 | 8.82479 | 4167 ft | 187 kts | 250° |
| 2026-05-05 18:30 | 50.09239 | 8.80620 | 3960 ft | 180 kts | 250° |
| 2026-05-05 18:31 | 50.08811 | 8.78821 | 3721 ft | 179 kts | 250° |
| 2026-05-05 18:31 | 50.08379 | 8.76998 | 3469 ft | 179 kts | 250° |
| 2026-05-05 18:31 | 50.07945 | 8.75169 | 3216 ft | 178 kts | 250° |
| 2026-05-05 18:31 | 50.07520 | 8.73377 | 2967 ft | 177 kts | 250° |
| 2026-05-05 18:32 | 50.07297 | 8.72438 | 2836 ft | 177 kts | 250° |
| 2026-05-05 18:32 | 50.07183 | 8.71961 | 2770 ft | 177 kts | 250° |
| 2026-05-05 18:32 | 50.07070 | 8.71484 | 2703 ft | 177 kts | 250° |
| 2026-05-05 18:32 | 50.06985 | 8.71127 | 2653 ft | 177 kts | 250° |
| 2026-05-05 18:33 | 50.06957 | 8.71008 | 2637 ft | 177 kts | 250° |
| 2026-05-05 18:33 | 50.06928 | 8.70889 | 2620 ft | 176 kts | 250° |
| 2026-05-05 18:33 | 50.06900 | 8.70770 | 2603 ft | 176 kts | 250° |